Terminal Aerodrome Forecast
Issued by NWS

Home | Current Version | Previous Version | Text Only | Print | Product List | Glossary On
Versions: 1 2 3 4 5 6 7 8 9 10 11 12 13 14 15 16
000
FTUS41 KPHI 211100
TAFPNE
TAF
KPNE 211131Z 2112/2212 14003KT P6SM SCT050
     FM211800 19004KT P6SM VCSH SCT040 BKN060
     FM212100 17006KT P6SM -SHRA BKN040 BKN100
     FM220000 13005KT 6SM SHRA SCT025 BKN040
      TEMPO 2202/2205 5SM SHRA BKN025
     FM220800 08003KT 5SM BR BKN035=

USA.gov is the U.S. government's official web portal to all federal, state and local government web resources and services.